createdAt,value
2022-09-11T00:00:49.686Z,16.25
2022-09-11T00:03:18.279Z,16.50
2022-09-11T00:05:46.040Z,15.25
2022-09-11T00:08:16.712Z,15.25
2022-09-11T00:10:44.668Z,18.25
2022-09-11T00:13:14.297Z,17.25
2022-09-11T00:15:43.529Z,16.00
2022-09-11T00:18:11.647Z,18.50
2022-09-11T00:20:39.394Z,17.25
2022-09-11T00:23:07.462Z,16.75
2022-09-11T00:25:37.911Z,15.00
2022-09-11T00:28:05.651Z,13.75
2022-09-11T00:30:33.494Z,15.25
2022-09-11T00:33:01.583Z,17.00
2022-09-11T00:35:30.210Z,14.50
2022-09-11T00:37:57.939Z,14.00
2022-09-11T00:40:26.319Z,15.00
2022-09-11T00:42:58.223Z,14.75
2022-09-11T00:45:26.877Z,13.50
2022-09-11T00:47:54.695Z,14.75
2022-09-11T00:50:24.520Z,14.00
2022-09-11T00:52:54.746Z,14.00
2022-09-11T00:55:23.121Z,14.50
2022-09-11T00:57:52.363Z,13.25
2022-09-11T01:00:22.237Z,14.00
2022-09-11T01:02:50.921Z,13.50
2022-09-11T01:05:19.214Z,14.25
2022-09-11T01:07:47.330Z,13.50
2022-09-11T01:10:15.031Z,12.75
2022-09-11T01:12:50.738Z,15.25
2022-09-11T01:15:22.494Z,14.75
2022-09-11T01:17:55.072Z,13.00
2022-09-11T01:20:28.102Z,13.00
2022-09-11T01:23:12.041Z,12.50
2022-09-11T01:25:50.911Z,11.00
2022-09-11T01:28:21.100Z,12.50
2022-09-11T01:30:51.980Z,12.00
2022-09-11T01:33:22.857Z,10.50
2022-09-11T01:35:56.968Z,12.00
2022-09-11T01:38:29.068Z,11.75
2022-09-11T01:40:58.183Z,13.00
2022-09-11T01:43:30.594Z,11.00
2022-09-11T01:45:59.323Z,11.75
2022-09-11T01:48:29.841Z,10.75
2022-09-11T01:50:57.929Z,11.25
2022-09-11T01:53:27.550Z,13.00
2022-09-11T01:55:57.577Z,11.00
2022-09-11T01:58:27.906Z,11.25
2022-09-11T02:00:57.628Z,10.00
2022-09-11T02:03:27.033Z,9.75
2022-09-11T02:05:56.406Z,9.00
2022-09-11T02:08:26.535Z,10.00
2022-09-11T02:10:57.119Z,11.25
2022-09-11T02:13:29.789Z,11.50
2022-09-11T02:15:58.839Z,11.25
2022-09-11T02:18:27.824Z,10.00
2022-09-11T02:20:55.560Z,10.75
2022-09-11T02:23:23.276Z,11.00
2022-09-11T02:25:51.589Z,10.00
2022-09-11T02:28:19.380Z,12.00
2022-09-11T02:30:48.465Z,10.25
2022-09-11T02:33:29.476Z,10.00
2022-09-11T02:35:59.733Z,9.25
2022-09-11T02:38:30.201Z,10.00
2022-09-11T02:41:01.537Z,10.25
2022-09-11T02:43:42.571Z,10.00
2022-09-11T02:46:19.866Z,10.25
2022-09-11T02:48:51.944Z,8.75
2022-09-11T02:51:24.365Z,10.00
2022-09-11T02:53:55.747Z,10.50
2022-09-11T02:56:25.927Z,11.00
2022-09-11T02:58:55.642Z,9.00
2022-09-11T03:01:27.141Z,10.00
2022-09-11T03:03:54.868Z,11.00
2022-09-11T03:06:24.129Z,10.00
2022-09-11T03:08:51.896Z,10.75
2022-09-11T03:11:20.078Z,10.75
2022-09-11T03:13:47.820Z,11.25
2022-09-11T03:16:15.602Z,10.50
2022-09-11T03:18:44.709Z,10.00
2022-09-11T03:21:12.738Z,9.00
2022-09-11T03:23:40.915Z,10.00
2022-09-11T03:26:09.034Z,10.50
2022-09-11T03:28:36.795Z,9.75
2022-09-11T03:31:06.188Z,10.00
2022-09-11T03:33:35.133Z,10.00
2022-09-11T03:36:04.760Z,10.00
2022-09-11T03:38:32.970Z,10.50
2022-09-11T03:41:01.875Z,10.25
2022-09-11T03:43:29.604Z,9.25
2022-09-11T03:45:57.388Z,10.25
2022-09-11T03:48:25.213Z,11.75
2022-09-11T03:50:53.308Z,9.50
2022-09-11T03:53:22.469Z,12.25
2022-09-11T03:55:50.906Z,10.00
2022-09-11T03:58:19.456Z,10.75
2022-09-11T04:00:47.574Z,10.25
2022-09-11T04:03:16.530Z,9.00
2022-09-11T04:05:45.125Z,12.00
2022-09-11T04:08:13.416Z,10.25
2022-09-11T04:10:42.524Z,10.00
2022-09-11T04:13:12.093Z,12.50
2022-09-11T04:15:39.814Z,9.00
2022-09-11T04:18:07.642Z,10.75
2022-09-11T04:20:35.439Z,12.25
2022-09-11T04:23:03.420Z,10.50
2022-09-11T04:25:31.124Z,11.25
2022-09-11T04:28:00.223Z,9.00
2022-09-11T04:30:28.012Z,11.00
2022-09-11T04:32:56.005Z,13.00
2022-09-11T04:35:23.812Z,10.00
2022-09-11T04:37:51.516Z,11.25
2022-09-11T04:40:19.240Z,11.00
2022-09-11T04:42:47.273Z,11.75
2022-09-11T04:45:16.908Z,11.25
2022-09-11T04:47:44.621Z,13.00
2022-09-11T04:50:12.862Z,14.25
2022-09-11T04:52:40.853Z,18.00
2022-09-11T04:55:09.422Z,25.25
2022-09-11T04:57:37.154Z,22.00
2022-09-11T05:00:05.647Z,21.00
2022-09-11T05:02:35.834Z,25.00
2022-09-11T05:05:03.855Z,25.00
2022-09-11T05:07:32.079Z,25.75
2022-09-11T05:09:59.798Z,23.75
2022-09-11T05:12:28.204Z,24.75
2022-09-11T05:14:55.923Z,31.50
2022-09-11T05:17:23.616Z,25.75
2022-09-11T05:19:52.712Z,24.75
2022-09-11T05:22:20.704Z,23.50
2022-09-11T05:24:50.576Z,22.50
2022-09-11T05:27:18.321Z,24.00
2022-09-11T05:29:46.053Z,24.50
2022-09-11T05:32:14.470Z,22.25
2022-09-11T05:34:42.205Z,22.50
2022-09-11T05:37:11.273Z,22.75
2022-09-11T05:39:39.042Z,24.50
2022-09-11T05:42:07.358Z,22.75
2022-09-11T05:44:36.890Z,24.75
2022-09-11T05:47:05.146Z,22.50
2022-09-11T05:49:32.869Z,22.50
2022-09-11T05:52:01.400Z,21.75
2022-09-11T05:54:30.468Z,21.25
2022-09-11T05:56:58.219Z,21.75
2022-09-11T05:59:27.324Z,24.25
2022-09-11T06:01:56.597Z,22.00
2022-09-11T06:04:24.391Z,25.00
2022-09-11T06:06:52.101Z,25.00
2022-09-11T06:09:19.788Z,23.00
2022-09-11T06:11:49.389Z,21.75
2022-09-11T06:14:17.382Z,24.50
2022-09-11T06:16:45.154Z,24.75
2022-09-11T06:19:13.004Z,20.25
2022-09-11T06:21:41.029Z,22.25
2022-09-11T06:24:09.391Z,19.75
2022-09-11T06:26:37.159Z,21.25
2022-09-11T06:29:06.270Z,24.25
2022-09-11T06:31:34.322Z,21.25
2022-09-11T06:34:02.067Z,22.75
2022-09-11T06:36:30.108Z,20.00
2022-09-11T06:38:58.254Z,20.25
2022-09-11T06:41:26.807Z,25.00
2022-09-11T06:43:54.651Z,22.25
2022-09-11T06:46:24.680Z,23.75
2022-09-11T06:48:52.492Z,19.75
2022-09-11T06:51:21.094Z,21.00
2022-09-11T06:53:48.854Z,23.50
2022-09-11T06:56:18.622Z,22.50
2022-09-11T06:58:46.609Z,23.25
2022-09-11T07:01:15.519Z,20.50
2022-09-11T07:03:45.985Z,21.75
2022-09-11T07:06:13.781Z,19.00
2022-09-11T07:08:41.518Z,23.25
2022-09-11T07:11:11.747Z,22.00
2022-09-11T07:13:39.719Z,22.00
2022-09-11T07:16:08.853Z,20.75
2022-09-11T07:18:36.671Z,18.25
2022-09-11T07:21:11.201Z,20.25
2022-09-11T07:23:39.492Z,20.50
2022-09-11T07:26:08.242Z,17.75
2022-09-11T07:28:37.698Z,19.75
2022-09-11T07:31:07.252Z,21.00
2022-09-11T07:33:35.048Z,20.25
2022-09-11T07:36:07.821Z,22.75
2022-09-11T07:38:36.942Z,28.75
2022-09-11T07:41:04.929Z,29.25
2022-09-11T07:43:32.681Z,29.25
2022-09-11T07:46:00.496Z,30.00
2022-09-11T07:48:28.229Z,34.50
2022-09-11T07:50:57.770Z,31.00
2022-09-11T07:53:25.861Z,30.00
2022-09-11T07:55:56.060Z,32.25
2022-09-11T07:58:24.158Z,30.25
2022-09-11T08:00:58.851Z,31.00
2022-09-11T08:03:26.703Z,28.25
2022-09-11T08:05:58.444Z,27.25
2022-09-11T08:08:26.390Z,25.25
2022-09-11T08:10:56.217Z,26.50
2022-09-11T08:13:25.105Z,22.25
2022-09-11T08:15:52.853Z,23.25
2022-09-11T08:18:20.628Z,24.50
2022-09-11T08:20:48.416Z,20.25
2022-09-11T08:23:16.465Z,28.50
2022-09-11T08:25:44.437Z,20.75
2022-09-11T08:28:13.538Z,23.00
2022-09-11T08:30:41.245Z,22.00
2022-09-11T08:33:09.579Z,24.00
2022-09-11T08:35:37.663Z,24.25
2022-09-11T08:38:05.403Z,24.00
2022-09-11T08:40:33.279Z,28.75
2022-09-11T08:43:02.784Z,27.75
2022-09-11T08:45:34.747Z,27.00
2022-09-11T08:48:03.067Z,37.75
2022-09-11T08:50:33.406Z,30.25
2022-09-11T08:53:01.540Z,28.50
2022-09-11T08:55:32.124Z,29.50
2022-09-11T08:58:02.971Z,30.25
2022-09-11T09:00:33.734Z,29.50
2022-09-11T09:03:26.329Z,27.50
2022-09-11T09:05:55.742Z,25.00
2022-09-11T09:08:35.626Z,27.50
2022-09-11T09:11:06.183Z,26.50
2022-09-11T09:14:12.085Z,25.00
2022-09-11T09:16:47.066Z,23.75
2022-09-11T09:19:16.159Z,23.50
2022-09-11T09:21:46.890Z,24.50
2022-09-11T09:24:19.451Z,23.50
2022-09-11T09:26:49.291Z,25.25
2022-09-11T09:29:20.052Z,25.25
2022-09-11T09:31:49.429Z,23.25
2022-09-11T09:34:18.340Z,32.00
2022-09-11T09:36:48.783Z,29.50
2022-09-11T09:39:17.545Z,32.75
2022-09-11T09:42:09.883Z,33.50
2022-09-11T09:44:43.069Z,33.00
2022-09-11T09:47:13.148Z,35.00
2022-09-11T09:49:40.872Z,32.75
2022-09-11T09:52:16.760Z,34.50
2022-09-11T09:54:44.476Z,30.50
2022-09-11T09:57:12.765Z,30.50
2022-09-11T09:59:41.949Z,32.00
2022-09-11T10:02:09.730Z,32.25
2022-09-11T10:04:38.826Z,31.25
2022-09-11T10:07:08.043Z,31.25
2022-09-11T10:09:35.778Z,30.00
2022-09-11T10:12:08.966Z,27.75
2022-09-11T10:14:51.414Z,27.00
2022-09-11T10:17:23.798Z,29.50
2022-09-11T10:19:55.247Z,28.00
2022-09-11T10:22:25.175Z,24.25
2022-09-11T10:25:10.968Z,26.00
2022-09-11T10:27:45.839Z,29.25
2022-09-11T10:30:31.734Z,34.75
2022-09-11T10:33:03.367Z,31.50
2022-09-11T10:35:33.777Z,31.00
2022-09-11T10:38:23.221Z,30.25
2022-09-11T10:41:09.025Z,31.75
2022-09-11T10:43:41.529Z,28.25
2022-09-11T10:46:24.082Z,30.50
2022-09-11T10:48:55.239Z,28.00
2022-09-11T10:51:25.562Z,26.75
2022-09-11T10:54:05.685Z,33.25
2022-09-11T10:56:35.059Z,23.75
2022-09-11T10:59:06.683Z,29.25
2022-09-11T11:01:34.713Z,31.00
2022-09-11T11:04:02.559Z,32.00
2022-09-11T11:06:39.916Z,30.75
2022-09-11T11:09:33.939Z,35.75
2022-09-11T11:12:18.804Z,32.75
2022-09-11T11:15:30.069Z,35.75
2022-09-11T11:18:10.012Z,32.50
2022-09-11T11:20:39.565Z,31.00
2022-09-11T11:23:29.757Z,32.25
2022-09-11T11:26:04.489Z,29.00
2022-09-11T11:28:40.893Z,29.00
2022-09-11T11:31:16.316Z,25.25
2022-09-11T11:33:55.210Z,29.75
2022-09-11T11:36:26.610Z,27.00
2022-09-11T11:39:00.703Z,28.50
2022-09-11T11:41:30.378Z,27.50
2022-09-11T11:43:58.983Z,33.00
2022-09-11T11:46:28.607Z,26.00
2022-09-11T11:48:57.191Z,25.25
2022-09-11T11:51:27.151Z,27.75
2022-09-11T11:54:00.186Z,24.25
2022-09-11T11:56:33.243Z,28.75
2022-09-11T11:59:03.882Z,26.25
2022-09-11T12:01:37.100Z,30.00
2022-09-11T12:04:06.413Z,28.25
2022-09-11T12:06:34.112Z,26.75
2022-09-11T12:09:03.261Z,30.00
2022-09-11T12:11:32.532Z,30.00
2022-09-11T12:14:00.271Z,27.75
2022-09-11T12:16:31.633Z,25.75
2022-09-11T12:19:14.848Z,31.25
2022-09-11T12:21:43.976Z,26.50
2022-09-11T12:24:18.283Z,27.00
2022-09-11T12:26:46.228Z,28.00
2022-09-11T12:29:54.223Z,28.50
2022-09-11T12:32:44.313Z,27.50
2022-09-11T12:35:21.076Z,29.50
2022-09-11T12:37:54.121Z,27.50
2022-09-11T12:40:28.899Z,29.25
2022-09-11T12:42:58.433Z,26.25
2022-09-11T12:45:44.257Z,25.25
2022-09-11T12:48:12.546Z,27.00
2022-09-11T12:50:40.272Z,25.00
2022-09-11T12:53:08.882Z,24.25
2022-09-11T12:55:39.761Z,22.50
2022-09-11T12:58:09.369Z,25.25
2022-09-11T13:00:39.101Z,23.00
2022-09-11T13:03:07.551Z,23.75
2022-09-11T13:05:37.993Z,26.25
2022-09-11T13:08:07.722Z,22.25
2022-09-11T13:10:36.652Z,27.00
2022-09-11T13:13:07.301Z,24.75
2022-09-11T13:15:44.091Z,27.25
2022-09-11T13:18:32.164Z,21.50
2022-09-11T13:21:01.556Z,26.25
2022-09-11T13:23:29.589Z,24.50
2022-09-11T13:25:58.313Z,26.50
2022-09-11T13:28:28.290Z,23.25
2022-09-11T13:30:57.707Z,24.00
2022-09-11T13:33:27.904Z,23.50
2022-09-11T13:35:57.490Z,24.25
2022-09-11T13:38:26.417Z,23.50
2022-09-11T13:40:55.565Z,24.50
2022-09-11T13:43:25.518Z,22.00
2022-09-11T13:46:15.807Z,23.00
2022-09-11T13:48:44.258Z,22.00
2022-09-11T13:51:12.834Z,23.00
2022-09-11T13:53:40.668Z,21.25
2022-09-11T13:56:21.398Z,23.00
2022-09-11T13:58:53.325Z,23.00
2022-09-11T14:01:23.076Z,22.75
2022-09-11T14:03:50.887Z,20.50
2022-09-11T14:06:19.739Z,21.00
2022-09-11T14:08:50.291Z,23.75
2022-09-11T14:11:22.887Z,20.00
2022-09-11T14:13:51.720Z,19.50
2022-09-11T14:16:24.146Z,22.00
2022-09-11T14:18:53.560Z,21.50
2022-09-11T14:21:22.857Z,20.00
2022-09-11T14:23:52.100Z,23.25
2022-09-11T14:26:20.405Z,20.75
2022-09-11T14:29:05.091Z,19.50
2022-09-11T14:31:38.481Z,22.50
2022-09-11T14:34:12.153Z,19.00
2022-09-11T14:36:41.753Z,18.75
2022-09-11T14:39:11.839Z,17.25
2022-09-11T14:41:40.747Z,20.00
2022-09-11T14:44:09.286Z,18.00
2022-09-11T14:46:38.754Z,20.25
2022-09-11T14:49:09.523Z,17.00
2022-09-11T14:51:38.159Z,17.75
2022-09-11T14:54:06.111Z,16.75
2022-09-11T14:56:33.940Z,16.75
2022-09-11T14:59:01.666Z,15.00
2022-09-11T15:01:29.801Z,18.00
2022-09-11T15:03:59.333Z,17.25
2022-09-11T15:06:27.053Z,14.75
2022-09-11T15:08:54.788Z,18.00
2022-09-11T15:11:22.858Z,18.00
2022-09-11T15:14:13.438Z,15.75
2022-09-11T15:16:38.286Z,15.00
2022-09-11T15:19:07.370Z,16.00
2022-09-11T15:21:37.582Z,17.50
2022-09-11T15:24:06.365Z,15.50
2022-09-11T15:26:34.382Z,17.50
2022-09-11T15:29:02.126Z,16.25
2022-09-11T15:31:30.218Z,15.00
2022-09-11T15:33:58.299Z,15.75
2022-09-11T15:36:29.771Z,16.75
2022-09-11T15:38:57.499Z,17.00
2022-09-11T15:41:27.961Z,16.50
2022-09-11T15:43:55.694Z,13.75
2022-09-11T15:46:24.350Z,15.00
2022-09-11T15:48:52.116Z,14.75
2022-09-11T15:51:20.428Z,16.00
2022-09-11T15:53:49.543Z,15.50
2022-09-11T15:56:18.679Z,16.00
2022-09-11T15:58:48.183Z,14.00
2022-09-11T16:01:18.767Z,17.25
2022-09-11T16:03:50.332Z,14.75
2022-09-11T16:06:18.199Z,12.00
2022-09-11T16:08:45.949Z,11.25
2022-09-11T16:11:15.498Z,15.00
2022-09-11T16:13:43.435Z,13.75
2022-09-11T16:16:11.323Z,13.50
2022-09-11T16:18:39.462Z,14.00
2022-09-11T16:21:07.591Z,12.00
2022-09-11T16:23:36.075Z,14.50
2022-09-11T16:26:04.451Z,13.00
2022-09-11T16:28:35.288Z,14.25
2022-09-11T16:31:04.513Z,13.00
2022-09-11T16:33:32.316Z,14.25
2022-09-11T16:36:01.642Z,13.25
2022-09-11T16:38:30.104Z,13.75
2022-09-11T16:41:04.750Z,13.00
2022-09-11T16:43:32.533Z,15.50
2022-09-11T16:46:02.193Z,10.75
2022-09-11T16:48:30.138Z,13.25
2022-09-11T16:50:57.951Z,13.00
2022-09-11T16:53:26.587Z,14.25
2022-09-11T16:55:54.509Z,10.00
2022-09-11T16:58:22.326Z,12.00
2022-09-11T17:00:50.112Z,13.50
2022-09-11T17:03:19.314Z,13.25
2022-09-11T17:05:47.967Z,13.00
2022-09-11T17:08:15.867Z,12.50
2022-09-11T17:10:44.835Z,14.25
2022-09-11T17:13:12.643Z,12.25
2022-09-11T17:15:40.480Z,12.75
2022-09-11T17:18:08.416Z,12.00
2022-09-11T17:20:37.739Z,12.75
2022-09-11T17:23:06.512Z,16.00
2022-09-11T17:25:35.101Z,11.25
2022-09-11T17:28:03.381Z,12.75
2022-09-11T17:30:31.145Z,12.25
2022-09-11T17:32:59.288Z,11.50
2022-09-11T17:35:27.025Z,12.75
2022-09-11T17:37:56.118Z,12.50
2022-09-11T17:40:23.853Z,13.00
2022-09-11T17:42:52.962Z,11.75
2022-09-11T17:45:20.806Z,10.50
2022-09-11T17:47:48.613Z,11.25
2022-09-11T17:50:16.474Z,11.00
2022-09-11T17:52:44.465Z,12.00
2022-09-11T17:55:13.559Z,11.00
2022-09-11T17:57:44.295Z,13.00
2022-09-11T18:00:13.537Z,10.50
2022-09-11T18:02:41.540Z,10.50
2022-09-11T18:05:09.496Z,10.00
2022-09-11T18:07:37.441Z,11.75
2022-09-11T18:10:05.820Z,11.75
2022-09-11T18:12:35.382Z,10.50
2022-09-11T18:15:03.746Z,9.75
2022-09-11T18:17:32.018Z,12.50
2022-09-11T18:19:59.757Z,11.00
2022-09-11T18:22:29.739Z,10.75
2022-09-11T18:24:59.871Z,10.25
2022-09-11T18:27:29.781Z,10.25
2022-09-11T18:29:59.940Z,9.00
2022-09-11T18:32:27.748Z,11.75
2022-09-11T18:35:00.121Z,12.75
2022-09-11T18:37:28.019Z,11.25
2022-09-11T18:39:55.776Z,12.25
2022-09-11T18:42:23.827Z,10.25
2022-09-11T18:44:51.623Z,12.25
2022-09-11T18:47:22.113Z,13.00
2022-09-11T18:49:51.525Z,11.00
2022-09-11T18:52:23.958Z,10.00
2022-09-11T18:54:54.448Z,11.00
2022-09-11T18:57:22.170Z,9.00
2022-09-11T18:59:52.122Z,10.75
2022-09-11T19:02:21.526Z,12.00
2022-09-11T19:04:49.660Z,12.00
2022-09-11T19:07:17.447Z,9.50
2022-09-11T19:09:46.199Z,10.75
2022-09-11T19:12:16.239Z,9.50
2022-09-11T19:14:44.270Z,11.00
2022-09-11T19:17:12.127Z,11.00
2022-09-11T19:19:41.475Z,9.25
2022-09-11T19:22:09.467Z,10.50
2022-09-11T19:24:37.283Z,11.75
2022-09-11T19:27:05.396Z,11.75
2022-09-11T19:29:33.380Z,14.75
2022-09-11T19:32:02.585Z,10.50
2022-09-11T19:34:31.120Z,11.00
2022-09-11T19:37:00.375Z,10.50
2022-09-11T19:39:28.673Z,10.50
2022-09-11T19:41:56.680Z,13.00
2022-09-11T19:44:25.201Z,14.00
2022-09-11T19:46:56.215Z,12.75
2022-09-11T19:49:24.053Z,13.50
2022-09-11T19:51:52.738Z,13.00
2022-09-11T19:54:22.406Z,11.75
2022-09-11T19:56:50.988Z,13.00
2022-09-11T19:59:18.690Z,12.00
2022-09-11T20:01:46.815Z,11.50
2022-09-11T20:04:15.774Z,10.25
2022-09-11T20:12:00.621Z,12.75
2022-09-11T20:14:29.274Z,12.00
2022-09-11T20:16:57.008Z,12.25
2022-09-11T20:19:25.039Z,13.00
2022-09-11T20:21:53.241Z,14.75
2022-09-11T20:24:21.117Z,14.00
2022-09-11T20:26:48.941Z,13.25
2022-09-11T20:29:18.165Z,14.25
2022-09-11T20:31:48.494Z,14.25
2022-09-11T20:34:17.021Z,14.00
2022-09-11T20:36:44.768Z,13.25
2022-09-11T20:39:12.820Z,13.25
2022-09-11T20:41:40.558Z,13.50
2022-09-11T20:44:08.510Z,15.50
2022-09-11T20:46:37.755Z,15.00
2022-09-11T20:49:05.603Z,14.75
2022-09-11T20:51:33.699Z,16.00
2022-09-11T20:54:01.524Z,15.00
2022-09-11T20:56:29.426Z,15.75
2022-09-11T20:58:57.523Z,16.50
2022-09-11T21:01:26.361Z,14.75
2022-09-11T21:03:56.646Z,13.25
2022-09-11T21:06:26.277Z,15.00
2022-09-11T21:08:55.379Z,18.25
2022-09-11T21:11:23.545Z,15.00
2022-09-11T21:13:51.384Z,17.00
2022-09-11T21:16:19.706Z,15.00
2022-09-11T21:18:48.756Z,15.25
2022-09-11T21:21:18.510Z,18.25
2022-09-11T21:23:46.336Z,18.75
2022-09-11T21:26:15.570Z,16.00
2022-09-11T21:28:43.470Z,17.75
2022-09-11T21:31:12.925Z,19.00
2022-09-11T21:33:40.985Z,17.00
2022-09-11T21:36:09.152Z,16.00
2022-09-11T21:38:38.279Z,16.50
2022-09-11T21:41:07.375Z,19.50
2022-09-11T21:43:35.305Z,16.50
2022-09-11T21:46:03.135Z,16.00
2022-09-11T21:48:35.485Z,15.75
2022-09-11T21:51:07.932Z,15.75
2022-09-11T21:53:35.724Z,17.00
2022-09-11T21:56:05.387Z,15.00
2022-09-11T21:58:33.252Z,17.75
2022-09-11T22:01:03.983Z,18.25
2022-09-11T22:03:31.765Z,12.75
2022-09-11T22:05:59.499Z,16.00
2022-09-11T22:08:27.210Z,15.50
2022-09-11T22:10:55.051Z,14.00
2022-09-11T22:13:24.163Z,14.25
2022-09-11T22:15:52.039Z,19.00
2022-09-11T22:18:19.989Z,15.00
2022-09-11T22:20:47.820Z,14.50
2022-09-11T22:23:15.995Z,17.25
2022-09-11T22:25:43.740Z,14.00
2022-09-11T22:28:11.779Z,14.25
2022-09-11T22:30:43.203Z,16.50
2022-09-11T22:33:11.236Z,15.50
2022-09-11T22:35:38.956Z,16.75
2022-09-11T22:38:06.669Z,14.00
2022-09-11T22:40:34.465Z,15.50
2022-09-11T22:43:02.609Z,16.00
2022-09-11T22:45:30.346Z,15.50
2022-09-11T22:47:59.485Z,16.00
2022-09-11T22:50:27.461Z,14.50
2022-09-11T22:52:55.339Z,15.00
2022-09-11T22:55:23.079Z,14.75
2022-09-11T22:57:50.909Z,16.00
2022-09-11T23:00:18.980Z,16.00
2022-09-11T23:02:46.959Z,15.00
2022-09-11T23:05:33.674Z,13.75
2022-09-11T23:08:01.387Z,15.50
2022-09-11T23:10:29.098Z,14.00
2022-09-11T23:12:57.203Z,14.00
2022-09-11T23:15:24.919Z,16.75
2022-09-11T23:17:52.619Z,15.50
2022-09-11T23:20:22.192Z,14.50
2022-09-11T23:22:50.180Z,19.00
2022-09-11T23:25:18.068Z,15.00
2022-09-11T23:27:46.548Z,19.75
2022-09-11T23:30:14.309Z,14.25
2022-09-11T23:32:42.296Z,15.25
2022-09-11T23:35:10.821Z,17.75
2022-09-11T23:37:43.519Z,15.25
2022-09-11T23:40:13.077Z,17.25
2022-09-11T23:42:41.162Z,19.00
2022-09-11T23:45:13.046Z,18.00
2022-09-11T23:47:40.750Z,16.50
2022-09-11T23:50:09.473Z,17.00
2022-09-11T23:52:39.619Z,14.50
2022-09-11T23:55:08.110Z,15.50
2022-09-11T23:57:35.801Z,16.75
